الصفحة الرئيسية
METAR-TAF:

METAR-TAF

مطار :

بيتسبرغ, بنسيلفانيا, الولايات المتحدة

Pittsburgh International Airport

دائرة عرض: 40-30-14N, خط طول: 080-15-59W, ارتفاع: 366 متر

مراقبة الطقس الحالي

تاريخ ووقت الإصدار 35 دقيقة قبل الساعة 10:51UTC
ريح 3 عقدة من الجنوب الغربي
درجة الحرارة -4°درجة مئوية
الرطوبة 93%
ضغط 1027 hPa
الرؤية: 6.4 كم
غيوم قليلة على ارتفاع 2500 قدم
ملبد بالغيوم على ارتفاع 4200 قدم
ثلوج خفيفة, غشاء

METAR: KPIT 161051Z 23003KT 4SM -SN BR FEW025 OVC042 M04/M05 A3033 RMK AO2 SLP296 P0000 T10391050

زمن: 06:26 (11:26 UTC)

توقعات

تاريخ ووقت الإصدار 49 دقيقة قبل الساعة 10:37UTC
التوقعات صالحة من16 الساعة 11 UTC إلى 17 الساعة 12 UTC
ريح 5 عقدة من الجنوب الغربي
الرؤية: 8.0 كم
ملبد بالغيوم على ارتفاع 4500 قدم
ثلوج خفيفة
من 16 الساعة 1800 UTC
ريح 7 عقدة من الغرب/الجنوب الغربي
الرؤية: 9.7 كم
ملبد بالغيوم على ارتفاع 1500 قدم
ثلوج خفيفة
من 17 الساعة 0100 UTC
ريح 10 عقدة من الغرب
الرؤية: 10 كم
ملبد بالغيوم على ارتفاع 2500 قدم

TAF: KPIT 161037Z 1611/1712 23005KT 5SM -SN OVC045 FM161800 24007KT 6SM -SN OVC015 FM170100 28010KT P6SM OVC025

أرصاد الطقس والتوقعات من أكثر من 4000 مطار (تقارير الطقس للمطار METAR والتنبؤ بالطقس بالمطارTAF).

المحطات المتاحة هي النقط الصفراء والحمراء على الخريطة.

حرك المؤشر فوق النقطة لمعرفة اسم المحطة.

ثم انقر لمعرفة أرصاد وتوقعات الطقس.

لتغيير الخارطة: اضغط على الأزرار الخضراء مع رمز الصليب الأسود للتكبير. على الزر الأخضر مع شرطة للتصغير، أو على الأسهم الخضراء للخرائط المجاورة.


METAR-TAF: